sensor_id;sensor_type;location;lat;lon;timestamp;temperature;humidity
40257;DHT22;25977;45.462;9.210;2022-11-20T00:00:46;12.90;71.50
40257;DHT22;25977;45.462;9.210;2022-11-20T00:03:12;12.30;77.00
40257;DHT22;25977;45.462;9.210;2022-11-20T00:05:38;12.30;79.20
40257;DHT22;25977;45.462;9.210;2022-11-20T00:08:04;12.10;80.80
40257;DHT22;25977;45.462;9.210;2022-11-20T00:10:30;12.30;81.10
40257;DHT22;25977;45.462;9.210;2022-11-20T00:12:57;12.30;81.60
40257;DHT22;25977;45.462;9.210;2022-11-20T00:15:22;12.40;81.40
40257;DHT22;25977;45.462;9.210;2022-11-20T00:17:48;12.50;81.50
40257;DHT22;25977;45.462;9.210;2022-11-20T00:20:14;12.50;81.60
40257;DHT22;25977;45.462;9.210;2022-11-20T00:22:40;12.50;81.60
40257;DHT22;25977;45.462;9.210;2022-11-20T00:25:06;12.40;82.00
40257;DHT22;25977;45.462;9.210;2022-11-20T00:27:31;12.40;82.20
40257;DHT22;25977;45.462;9.210;2022-11-20T00:29:57;12.30;82.40
40257;DHT22;25977;45.462;9.210;2022-11-20T00:32:23;12.30;82.50
40257;DHT22;25977;45.462;9.210;2022-11-20T00:34:48;12.30;82.10
40257;DHT22;25977;45.462;9.210;2022-11-20T00:37:15;12.30;82.30
40257;DHT22;25977;45.462;9.210;2022-11-20T00:39:41;12.20;82.20
40257;DHT22;25977;45.462;9.210;2022-11-20T00:42:06;12.20;82.20
40257;DHT22;25977;45.462;9.210;2022-11-20T00:44:32;12.20;82.30
40257;DHT22;25977;45.462;9.210;2022-11-20T00:46:58;12.20;82.30
40257;DHT22;25977;45.462;9.210;2022-11-20T00:49:23;12.20;82.50
40257;DHT22;25977;45.462;9.210;2022-11-20T00:51:49;12.20;82.50
40257;DHT22;25977;45.462;9.210;2022-11-20T00:54:15;12.20;82.60
40257;DHT22;25977;45.462;9.210;2022-11-20T00:56:40;12.10;82.70
40257;DHT22;25977;45.462;9.210;2022-11-20T00:59:08;12.10;82.90
40257;DHT22;25977;45.462;9.210;2022-11-20T01:01:34;12.10;83.00
40257;DHT22;25977;45.462;9.210;2022-11-20T01:04:01;12.10;83.20
40257;DHT22;25977;45.462;9.210;2022-11-20T01:06:30;12.00;83.30
40257;DHT22;25977;45.462;9.210;2022-11-20T01:08:59;12.00;83.30
40257;DHT22;25977;45.462;9.210;2022-11-20T01:11:31;12.00;83.40
40257;DHT22;25977;45.462;9.210;2022-11-20T01:13:58;12.00;83.40
40257;DHT22;25977;45.462;9.210;2022-11-20T01:16:45;11.80;83.40
40257;DHT22;25977;45.462;9.210;2022-11-20T01:19:14;11.80;83.60
40257;DHT22;25977;45.462;9.210;2022-11-20T01:21:42;11.80;83.70
40257;DHT22;25977;45.462;9.210;2022-11-20T01:24:11;11.80;83.50
40257;DHT22;25977;45.462;9.210;2022-11-20T01:26:39;11.60;83.60
40257;DHT22;25977;45.462;9.210;2022-11-20T01:29:08;11.70;83.60
40257;DHT22;25977;45.462;9.210;2022-11-20T01:31:36;11.60;83.40
40257;DHT22;25977;45.462;9.210;2022-11-20T01:34:09;11.60;83.40
40257;DHT22;25977;45.462;9.210;2022-11-20T01:36:36;11.40;83.40
40257;DHT22;25977;45.462;9.210;2022-11-20T01:39:05;11.50;83.40
40257;DHT22;25977;45.462;9.210;2022-11-20T01:41:33;11.50;83.30
40257;DHT22;25977;45.462;9.210;2022-11-20T01:44:21;11.50;83.00
40257;DHT22;25977;45.462;9.210;2022-11-20T01:46:56;11.50;82.90
40257;DHT22;25977;45.462;9.210;2022-11-20T01:49:27;11.40;82.90
40257;DHT22;25977;45.462;9.210;2022-11-20T01:52:04;11.40;83.20
40257;DHT22;25977;45.462;9.210;2022-11-20T01:54:38;11.40;83.10
40257;DHT22;25977;45.462;9.210;2022-11-20T01:57:08;11.40;83.00
40257;DHT22;25977;45.462;9.210;2022-11-20T01:59:35;11.40;83.20
40257;DHT22;25977;45.462;9.210;2022-11-20T02:02:05;11.30;83.10
40257;DHT22;25977;45.462;9.210;2022-11-20T02:04:31;11.40;83.10
40257;DHT22;25977;45.462;9.210;2022-11-20T02:07:01;11.40;83.10
40257;DHT22;25977;45.462;9.210;2022-11-20T02:09:28;11.40;83.10
40257;DHT22;25977;45.462;9.210;2022-11-20T02:11:54;11.40;83.10
40257;DHT22;25977;45.462;9.210;2022-11-20T02:14:21;11.40;82.90
40257;DHT22;25977;45.462;9.210;2022-11-20T02:16:48;11.40;82.80
40257;DHT22;25977;45.462;9.210;2022-11-20T02:19:22;11.40;82.80
40257;DHT22;25977;45.462;9.210;2022-11-20T02:24:21;11.40;82.30
40257;DHT22;25977;45.462;9.210;2022-11-20T02:29:23;11.40;80.70
40257;DHT22;25977;45.462;9.210;2022-11-20T02:31:50;11.40;80.30
40257;DHT22;25977;45.462;9.210;2022-11-20T02:34:16;11.60;80.40
40257;DHT22;25977;45.462;9.210;2022-11-20T02:36:42;11.40;80.00
40257;DHT22;25977;45.462;9.210;2022-11-20T02:39:10;11.40;79.80
40257;DHT22;25977;45.462;9.210;2022-11-20T02:41:37;11.40;79.40
40257;DHT22;25977;45.462;9.210;2022-11-20T02:44:04;11.40;78.70
40257;DHT22;25977;45.462;9.210;2022-11-20T02:46:31;11.40;78.90
40257;DHT22;25977;45.462;9.210;2022-11-20T02:48:58;11.40;78.60
40257;DHT22;25977;45.462;9.210;2022-11-20T02:51:24;11.60;78.20
40257;DHT22;25977;45.462;9.210;2022-11-20T02:53:50;11.40;78.00
40257;DHT22;25977;45.462;9.210;2022-11-20T02:56:15;11.40;78.20
40257;DHT22;25977;45.462;9.210;2022-11-20T02:58:41;11.40;78.30
40257;DHT22;25977;45.462;9.210;2022-11-20T03:01:07;11.40;78.10
40257;DHT22;25977;45.462;9.210;2022-11-20T03:03:33;11.40;78.10
40257;DHT22;25977;45.462;9.210;2022-11-20T03:05:59;11.40;78.20
40257;DHT22;25977;45.462;9.210;2022-11-20T03:08:25;11.40;78.10
40257;DHT22;25977;45.462;9.210;2022-11-20T03:10:51;11.60;77.80
40257;DHT22;25977;45.462;9.210;2022-11-20T03:13:17;11.40;77.80
40257;DHT22;25977;45.462;9.210;2022-11-20T03:15:43;11.40;77.90
40257;DHT22;25977;45.462;9.210;2022-11-20T03:18:09;11.30;77.90
40257;DHT22;25977;45.462;9.210;2022-11-20T03:20:35;11.30;77.70
40257;DHT22;25977;45.462;9.210;2022-11-20T03:23:01;11.30;77.90
40257;DHT22;25977;45.462;9.210;2022-11-20T03:25:27;11.30;77.80
40257;DHT22;25977;45.462;9.210;2022-11-20T03:27:54;11.30;77.70
40257;DHT22;25977;45.462;9.210;2022-11-20T03:30:20;11.30;77.80
40257;DHT22;25977;45.462;9.210;2022-11-20T03:32:45;11.30;77.90
40257;DHT22;25977;45.462;9.210;2022-11-20T03:35:11;11.30;78.00
40257;DHT22;25977;45.462;9.210;2022-11-20T03:37:37;11.30;77.90
40257;DHT22;25977;45.462;9.210;2022-11-20T03:40:03;11.30;77.80
40257;DHT22;25977;45.462;9.210;2022-11-20T03:42:29;11.20;78.00
40257;DHT22;25977;45.462;9.210;2022-11-20T03:45:17;11.20;78.00
40257;DHT22;25977;45.462;9.210;2022-11-20T03:47:43;11.20;78.10
40257;DHT22;25977;45.462;9.210;2022-11-20T03:50:11;11.20;78.40
40257;DHT22;25977;45.462;9.210;2022-11-20T03:52:41;11.20;78.50
40257;DHT22;25977;45.462;9.210;2022-11-20T03:55:07;11.20;78.20
40257;DHT22;25977;45.462;9.210;2022-11-20T03:57:33;11.10;78.40
40257;DHT22;25977;45.462;9.210;2022-11-20T03:59:59;11.10;78.40
40257;DHT22;25977;45.462;9.210;2022-11-20T04:02:24;11.10;78.00
40257;DHT22;25977;45.462;9.210;2022-11-20T04:04:50;11.10;78.10
40257;DHT22;25977;45.462;9.210;2022-11-20T04:07:16;11.10;78.10
40257;DHT22;25977;45.462;9.210;2022-11-20T04:09:41;11.10;78.00
40257;DHT22;25977;45.462;9.210;2022-11-20T04:12:07;11.10;78.10
40257;DHT22;25977;45.462;9.210;2022-11-20T04:14:33;11.10;78.20
40257;DHT22;25977;45.462;9.210;2022-11-20T04:16:58;11.20;78.20
40257;DHT22;25977;45.462;9.210;2022-11-20T04:19:24;11.10;78.00
40257;DHT22;25977;45.462;9.210;2022-11-20T04:21:50;11.10;77.60
40257;DHT22;25977;45.462;9.210;2022-11-20T04:24:15;11.10;77.60
40257;DHT22;25977;45.462;9.210;2022-11-20T04:26:41;12.00;78.20
40257;DHT22;25977;45.462;9.210;2022-11-20T04:29:10;11.10;77.50
40257;DHT22;25977;45.462;9.210;2022-11-20T04:31:36;11.10;77.50
40257;DHT22;25977;45.462;9.210;2022-11-20T04:34:03;11.30;77.60
40257;DHT22;25977;45.462;9.210;2022-11-20T04:36:30;11.10;77.50
40257;DHT22;25977;45.462;9.210;2022-11-20T04:39:04;11.10;77.30
40257;DHT22;25977;45.462;9.210;2022-11-20T04:41:33;11.10;77.00
40257;DHT22;25977;45.462;9.210;2022-11-20T04:44:01;11.10;77.30
40257;DHT22;25977;45.462;9.210;2022-11-20T04:46:38;11.20;77.30
40257;DHT22;25977;45.462;9.210;2022-11-20T04:49:05;11.10;77.40
40257;DHT22;25977;45.462;9.210;2022-11-20T04:51:31;11.10;77.40
40257;DHT22;25977;45.462;9.210;2022-11-20T04:53:57;11.00;77.20
40257;DHT22;25977;45.462;9.210;2022-11-20T04:56:23;11.10;77.30
40257;DHT22;25977;45.462;9.210;2022-11-20T04:58:49;11.20;77.40
40257;DHT22;25977;45.462;9.210;2022-11-20T05:01:19;11.00;77.30
40257;DHT22;25977;45.462;9.210;2022-11-20T05:03:45;11.10;77.30
40257;DHT22;25977;45.462;9.210;2022-11-20T05:06:12;11.00;77.20
40257;DHT22;25977;45.462;9.210;2022-11-20T05:08:39;11.10;77.10
40257;DHT22;25977;45.462;9.210;2022-11-20T05:11:11;11.10;76.80
40257;DHT22;25977;45.462;9.210;2022-11-20T05:13:38;11.10;76.90
40257;DHT22;25977;45.462;9.210;2022-11-20T05:16:06;11.10;77.20
40257;DHT22;25977;45.462;9.210;2022-11-20T05:18:36;11.00;77.40
40257;DHT22;25977;45.462;9.210;2022-11-20T05:21:02;11.00;78.30
40257;DHT22;25977;45.462;9.210;2022-11-20T05:23:32;11.00;78.30
40257;DHT22;25977;45.462;9.210;2022-11-20T05:25:58;11.20;78.60
40257;DHT22;25977;45.462;9.210;2022-11-20T05:28:24;11.00;78.70
40257;DHT22;25977;45.462;9.210;2022-11-20T05:30:50;11.00;79.00
40257;DHT22;25977;45.462;9.210;2022-11-20T05:33:18;11.20;79.30
40257;DHT22;25977;45.462;9.210;2022-11-20T05:35:44;11.10;79.50
40257;DHT22;25977;45.462;9.210;2022-11-20T05:38:10;11.00;79.60
40257;DHT22;25977;45.462;9.210;2022-11-20T05:40:36;10.90;79.70
40257;DHT22;25977;45.462;9.210;2022-11-20T05:43:02;10.90;79.60
40257;DHT22;25977;45.462;9.210;2022-11-20T05:45:28;10.90;79.30
40257;DHT22;25977;45.462;9.210;2022-11-20T05:47:57;10.90;79.20
40257;DHT22;25977;45.462;9.210;2022-11-20T05:50:22;11.00;79.30
40257;DHT22;25977;45.462;9.210;2022-11-20T05:52:48;10.90;79.10
40257;DHT22;25977;45.462;9.210;2022-11-20T05:55:14;10.90;78.90
40257;DHT22;25977;45.462;9.210;2022-11-20T05:57:39;10.90;78.50
40257;DHT22;25977;45.462;9.210;2022-11-20T06:00:06;11.00;78.50
40257;DHT22;25977;45.462;9.210;2022-11-20T06:02:34;10.90;78.50
40257;DHT22;25977;45.462;9.210;2022-11-20T06:05:00;11.10;79.00
40257;DHT22;25977;45.462;9.210;2022-11-20T06:07:26;10.90;78.80
40257;DHT22;25977;45.462;9.210;2022-11-20T06:09:51;10.90;78.80
40257;DHT22;25977;45.462;9.210;2022-11-20T06:12:18;10.90;79.10
40257;DHT22;25977;45.462;9.210;2022-11-20T06:14:44;11.00;79.30
40257;DHT22;25977;45.462;9.210;2022-11-20T06:17:09;11.00;79.20
40257;DHT22;25977;45.462;9.210;2022-11-20T06:19:35;11.00;79.40
40257;DHT22;25977;45.462;9.210;2022-11-20T06:22:01;11.00;79.60
40257;DHT22;25977;45.462;9.210;2022-11-20T06:24:26;10.90;79.80
40257;DHT22;25977;45.462;9.210;2022-11-20T06:26:52;10.90;80.00
40257;DHT22;25977;45.462;9.210;2022-11-20T06:29:18;10.90;80.10
40257;DHT22;25977;45.462;9.210;2022-11-20T06:31:43;10.90;80.20
40257;DHT22;25977;45.462;9.210;2022-11-20T06:34:10;10.90;80.40
40257;DHT22;25977;45.462;9.210;2022-11-20T06:36:35;10.90;80.40
40257;DHT22;25977;45.462;9.210;2022-11-20T06:39:01;10.90;80.40
40257;DHT22;25977;45.462;9.210;2022-11-20T06:41:27;11.00;80.60
40257;DHT22;25977;45.462;9.210;2022-11-20T06:43:53;11.00;80.60
40257;DHT22;25977;45.462;9.210;2022-11-20T06:46:19;11.00;80.60
40257;DHT22;25977;45.462;9.210;2022-11-20T06:48:46;11.00;80.50
40257;DHT22;25977;45.462;9.210;2022-11-20T06:51:12;11.00;80.40
40257;DHT22;25977;45.462;9.210;2022-11-20T06:53:38;11.20;80.40
40257;DHT22;25977;45.462;9.210;2022-11-20T06:56:05;11.00;80.30
40257;DHT22;25977;45.462;9.210;2022-11-20T06:58:33;11.10;80.30
40257;DHT22;25977;45.462;9.210;2022-11-20T07:01:04;11.00;80.20
40257;DHT22;25977;45.462;9.210;2022-11-20T07:03:30;11.10;80.10
40257;DHT22;25977;45.462;9.210;2022-11-20T07:05:56;11.10;79.90
40257;DHT22;25977;45.462;9.210;2022-11-20T07:08:22;11.10;79.80
40257;DHT22;25977;45.462;9.210;2022-11-20T07:10:48;11.10;79.80
40257;DHT22;25977;45.462;9.210;2022-11-20T07:13:14;11.10;80.00
40257;DHT22;25977;45.462;9.210;2022-11-20T07:15:39;11.10;79.60
40257;DHT22;25977;45.462;9.210;2022-11-20T07:18:06;11.10;79.80
40257;DHT22;25977;45.462;9.210;2022-11-20T07:20:31;11.20;79.50
40257;DHT22;25977;45.462;9.210;2022-11-20T07:22:57;11.10;79.20
40257;DHT22;25977;45.462;9.210;2022-11-20T07:25:27;11.20;79.30
40257;DHT22;25977;45.462;9.210;2022-11-20T07:28:00;11.20;78.10
40257;DHT22;25977;45.462;9.210;2022-11-20T07:30:27;11.30;77.70
40257;DHT22;25977;45.462;9.210;2022-11-20T07:32:54;11.30;76.90
40257;DHT22;25977;45.462;9.210;2022-11-20T07:35:21;11.30;76.90
40257;DHT22;25977;45.462;9.210;2022-11-20T07:37:47;11.30;76.50
40257;DHT22;25977;45.462;9.210;2022-11-20T07:40:14;11.30;75.20
40257;DHT22;25977;45.462;9.210;2022-11-20T07:42:50;11.40;75.80
40257;DHT22;25977;45.462;9.210;2022-11-20T07:45:17;11.40;75.80
40257;DHT22;25977;45.462;9.210;2022-11-20T07:47:43;11.40;75.40
40257;DHT22;25977;45.462;9.210;2022-11-20T07:50:10;11.50;75.20
40257;DHT22;25977;45.462;9.210;2022-11-20T07:52:36;11.50;75.00
40257;DHT22;25977;45.462;9.210;2022-11-20T07:55:01;11.50;75.30
40257;DHT22;25977;45.462;9.210;2022-11-20T07:57:27;11.60;75.60
40257;DHT22;25977;45.462;9.210;2022-11-20T07:59:53;11.60;75.10
40257;DHT22;25977;45.462;9.210;2022-11-20T08:02:18;11.60;74.80
40257;DHT22;25977;45.462;9.210;2022-11-20T08:04:44;11.60;75.10
40257;DHT22;25977;45.462;9.210;2022-11-20T08:07:10;11.70;75.00
40257;DHT22;25977;45.462;9.210;2022-11-20T08:09:36;11.70;75.10
40257;DHT22;25977;45.462;9.210;2022-11-20T08:12:01;11.90;75.20
40257;DHT22;25977;45.462;9.210;2022-11-20T08:14:46;12.00;74.70
40257;DHT22;25977;45.462;9.210;2022-11-20T08:17:11;12.10;74.50
40257;DHT22;25977;45.462;9.210;2022-11-20T08:19:37;12.20;74.20
40257;DHT22;25977;45.462;9.210;2022-11-20T08:22:03;12.40;73.70
40257;DHT22;25977;45.462;9.210;2022-11-20T08:24:29;12.50;73.80
40257;DHT22;25977;45.462;9.210;2022-11-20T08:26:57;12.60;73.40
40257;DHT22;25977;45.462;9.210;2022-11-20T08:29:25;12.70;73.20
40257;DHT22;25977;45.462;9.210;2022-11-20T08:31:51;12.80;72.70
40257;DHT22;25977;45.462;9.210;2022-11-20T08:34:17;12.90;72.50
40257;DHT22;25977;45.462;9.210;2022-11-20T08:36:43;13.10;72.20
40257;DHT22;25977;45.462;9.210;2022-11-20T08:39:11;13.20;71.80
40257;DHT22;25977;45.462;9.210;2022-11-20T08:41:37;13.30;71.40
40257;DHT22;25977;45.462;9.210;2022-11-20T08:44:04;13.50;70.80
40257;DHT22;25977;45.462;9.210;2022-11-20T08:46:37;13.60;70.60
40257;DHT22;25977;45.462;9.210;2022-11-20T08:49:04;13.70;70.20
40257;DHT22;25977;45.462;9.210;2022-11-20T08:51:30;13.90;69.60
40257;DHT22;25977;45.462;9.210;2022-11-20T08:53:56;13.90;69.60
40257;DHT22;25977;45.462;9.210;2022-11-20T08:56:21;14.10;69.80
40257;DHT22;25977;45.462;9.210;2022-11-20T08:58:50;14.10;69.70
40257;DHT22;25977;45.462;9.210;2022-11-20T09:01:17;14.30;69.20
40257;DHT22;25977;45.462;9.210;2022-11-20T09:03:42;14.30;69.20
40257;DHT22;25977;45.462;9.210;2022-11-20T09:06:08;14.40;68.80
40257;DHT22;25977;45.462;9.210;2022-11-20T09:08:34;14.50;69.40
40257;DHT22;25977;45.462;9.210;2022-11-20T09:11:01;14.60;69.50
40257;DHT22;25977;45.462;9.210;2022-11-20T09:13:28;14.70;69.50
40257;DHT22;25977;45.462;9.210;2022-11-20T09:15:59;14.70;69.40
40257;DHT22;25977;45.462;9.210;2022-11-20T09:18:25;15.50;69.90
40257;DHT22;25977;45.462;9.210;2022-11-20T09:20:55;14.80;69.10
40257;DHT22;25977;45.462;9.210;2022-11-20T09:23:21;14.90;68.80
40257;DHT22;25977;45.462;9.210;2022-11-20T09:25:47;15.00;68.70
40257;DHT22;25977;45.462;9.210;2022-11-20T09:28:12;15.00;68.40
40257;DHT22;25977;45.462;9.210;2022-11-20T09:30:38;15.10;68.30
40257;DHT22;25977;45.462;9.210;2022-11-20T09:33:06;15.20;67.80
40257;DHT22;25977;45.462;9.210;2022-11-20T09:35:32;15.20;68.00
40257;DHT22;25977;45.462;9.210;2022-11-20T09:37:58;15.30;67.90
40257;DHT22;25977;45.462;9.210;2022-11-20T09:40:26;15.20;67.20
40257;DHT22;25977;45.462;9.210;2022-11-20T09:43:23;15.20;67.20
40257;DHT22;25977;45.462;9.210;2022-11-20T09:46:09;15.20;67.60
40257;DHT22;25977;45.462;9.210;2022-11-20T09:56:40;15.40;66.60
40257;DHT22;25977;45.462;9.210;2022-11-20T10:01:48;15.40;66.20
40257;DHT22;25977;45.462;9.210;2022-11-20T10:04:19;15.40;66.10
40257;DHT22;25977;45.462;9.210;2022-11-20T10:09:30;15.50;65.40
40257;DHT22;25977;45.462;9.210;2022-11-20T10:17:22;15.50;65.20
40257;DHT22;25977;45.462;9.210;2022-11-20T10:26:06;15.60;64.50
40257;DHT22;25977;45.462;9.210;2022-11-20T10:29:41;15.70;65.00
40257;DHT22;25977;45.462;9.210;2022-11-20T10:31:40;15.70;65.20
40257;DHT22;25977;45.462;9.210;2022-11-20T10:34:27;15.70;64.30
40257;DHT22;25977;45.462;9.210;2022-11-20T10:37:22;15.60;64.70
40257;DHT22;25977;45.462;9.210;2022-11-20T10:42:37;15.60;65.00
40257;DHT22;25977;45.462;9.210;2022-11-20T10:48:01;15.70;64.70
40257;DHT22;25977;45.462;9.210;2022-11-20T10:50:36;15.80;64.70
40257;DHT22;25977;45.462;9.210;2022-11-20T10:56:03;15.70;64.10
40257;DHT22;25977;45.462;9.210;2022-11-20T11:01:13;15.90;63.70
40257;DHT22;25977;45.462;9.210;2022-11-20T11:03:39;15.80;63.70
40257;DHT22;25977;45.462;9.210;2022-11-20T11:08:51;15.70;64.00
40257;DHT22;25977;45.462;9.210;2022-11-20T11:11:29;15.70;64.30
40257;DHT22;25977;45.462;9.210;2022-11-20T11:14:15;15.80;64.50
40257;DHT22;25977;45.462;9.210;2022-11-20T11:16:52;15.80;64.40
40257;DHT22;25977;45.462;9.210;2022-11-20T11:19:17;15.80;64.60
40257;DHT22;25977;45.462;9.210;2022-11-20T11:22:06;15.80;64.60
40257;DHT22;25977;45.462;9.210;2022-11-20T11:24:38;15.80;64.40
40257;DHT22;25977;45.462;9.210;2022-11-20T11:27:16;15.70;64.60
40257;DHT22;25977;45.462;9.210;2022-11-20T11:29:44;15.80;64.80
40257;DHT22;25977;45.462;9.210;2022-11-20T11:32:19;15.70;64.90
40257;DHT22;25977;45.462;9.210;2022-11-20T11:34:59;15.70;64.90
40257;DHT22;25977;45.462;9.210;2022-11-20T11:37:36;15.80;65.00
40257;DHT22;25977;45.462;9.210;2022-11-20T11:40:04;15.60;64.70
40257;DHT22;25977;45.462;9.210;2022-11-20T11:42:30;15.70;64.90
40257;DHT22;25977;45.462;9.210;2022-11-20T11:44:58;15.70;64.60
40257;DHT22;25977;45.462;9.210;2022-11-20T11:55:47;15.60;64.70
40257;DHT22;25977;45.462;9.210;2022-11-20T12:01:24;15.60;64.60
40257;DHT22;25977;45.462;9.210;2022-11-20T12:06:31;15.70;64.60
40257;DHT22;25977;45.462;9.210;2022-11-20T12:09:04;15.80;64.10
40257;DHT22;25977;45.462;9.210;2022-11-20T12:11:54;15.70;64.00
40257;DHT22;25977;45.462;9.210;2022-11-20T12:14:41;15.70;64.10
40257;DHT22;25977;45.462;9.210;2022-11-20T12:17:12;15.70;63.90
40257;DHT22;25977;45.462;9.210;2022-11-20T12:19:39;15.80;63.70
40257;DHT22;25977;45.462;9.210;2022-11-20T12:30:32;15.90;64.20
40257;DHT22;25977;45.462;9.210;2022-11-20T12:33:51;15.90;64.20
40257;DHT22;25977;45.462;9.210;2022-11-20T12:36:45;15.90;64.30
40257;DHT22;25977;45.462;9.210;2022-11-20T12:39:34;15.90;64.20
40257;DHT22;25977;45.462;9.210;2022-11-20T12:45:30;15.90;64.10
40257;DHT22;25977;45.462;9.210;2022-11-20T12:53:27;16.10;64.10
40257;DHT22;25977;45.462;9.210;2022-11-20T13:01:49;16.10;62.60
40257;DHT22;25977;45.462;9.210;2022-11-20T13:07:12;16.20;62.00
40257;DHT22;25977;45.462;9.210;2022-11-20T13:09:49;16.20;62.30
40257;DHT22;25977;45.462;9.210;2022-11-20T13:12:36;16.10;62.30
40257;DHT22;25977;45.462;9.210;2022-11-20T13:17:54;16.20;61.90
40257;DHT22;25977;45.462;9.210;2022-11-20T13:20:21;16.20;62.00
40257;DHT22;25977;45.462;9.210;2022-11-20T13:22:49;16.20;61.60
40257;DHT22;25977;45.462;9.210;2022-11-20T13:25:36;16.30;61.30
40257;DHT22;25977;45.462;9.210;2022-11-20T13:28:24;16.20;61.40
40257;DHT22;25977;45.462;9.210;2022-11-20T13:30:52;16.20;61.20
40257;DHT22;25977;45.462;9.210;2022-11-20T13:33:29;16.20;61.20
40257;DHT22;25977;45.462;9.210;2022-11-20T13:36:23;16.20;61.00
40257;DHT22;25977;45.462;9.210;2022-11-20T13:38:51;16.20;61.50
40257;DHT22;25977;45.462;9.210;2022-11-20T13:49:08;15.90;61.20
40257;DHT22;25977;45.462;9.210;2022-11-20T13:51:47;15.90;61.10
40257;DHT22;25977;45.462;9.210;2022-11-20T13:54:37;15.90;61.30
40257;DHT22;25977;45.462;9.210;2022-11-20T14:00:15;15.90;61.10
40257;DHT22;25977;45.462;9.210;2022-11-20T14:02:41;15.80;61.00
40257;DHT22;25977;45.462;9.210;2022-11-20T14:05:37;15.80;60.80
40257;DHT22;25977;45.462;9.210;2022-11-20T14:08:06;15.80;60.80
40257;DHT22;25977;45.462;9.210;2022-11-20T14:10:32;15.60;60.90
40257;DHT22;25977;45.462;9.210;2022-11-20T14:12:58;15.70;61.10
40257;DHT22;25977;45.462;9.210;2022-11-20T14:15:32;15.60;61.20
40257;DHT22;25977;45.462;9.210;2022-11-20T14:17:58;15.70;61.00
40257;DHT22;25977;45.462;9.210;2022-11-20T14:20:28;15.60;60.90
40257;DHT22;25977;45.462;9.210;2022-11-20T14:22:54;15.60;60.30
40257;DHT22;25977;45.462;9.210;2022-11-20T14:25:25;15.50;59.80
40257;DHT22;25977;45.462;9.210;2022-11-20T14:28:00;15.50;60.00
40257;DHT22;25977;45.462;9.210;2022-11-20T14:30:42;15.50;59.80
40257;DHT22;25977;45.462;9.210;2022-11-20T14:33:11;15.50;59.60
40257;DHT22;25977;45.462;9.210;2022-11-20T14:35:47;15.50;59.40
40257;DHT22;25977;45.462;9.210;2022-11-20T14:38:15;15.40;59.70
40257;DHT22;25977;45.462;9.210;2022-11-20T14:40:42;15.30;58.60
40257;DHT22;25977;45.462;9.210;2022-11-20T14:45:56;15.30;59.40
40257;DHT22;25977;45.462;9.210;2022-11-20T14:48:39;15.20;59.50
40257;DHT22;25977;45.462;9.210;2022-11-20T14:51:10;15.30;59.70
40257;DHT22;25977;45.462;9.210;2022-11-20T14:53:36;15.20;59.60
40257;DHT22;25977;45.462;9.210;2022-11-20T14:56:02;15.30;59.80
40257;DHT22;25977;45.462;9.210;2022-11-20T14:58:30;15.20;59.80
40257;DHT22;25977;45.462;9.210;2022-11-20T15:01:12;15.20;60.30
40257;DHT22;25977;45.462;9.210;2022-11-20T15:03:39;15.20;60.40
40257;DHT22;25977;45.462;9.210;2022-11-20T15:06:07;15.10;60.40
40257;DHT22;25977;45.462;9.210;2022-11-20T15:08:36;15.10;60.50
40257;DHT22;25977;45.462;9.210;2022-11-20T15:11:02;15.10;60.70
40257;DHT22;25977;45.462;9.210;2022-11-20T15:13:38;15.10;60.80
40257;DHT22;25977;45.462;9.210;2022-11-20T15:16:22;15.00;61.60
40257;DHT22;25977;45.462;9.210;2022-11-20T15:21:19;15.00;61.10
40257;DHT22;25977;45.462;9.210;2022-11-20T15:23:49;15.00;61.10
40257;DHT22;25977;45.462;9.210;2022-11-20T15:26:25;15.00;61.50
40257;DHT22;25977;45.462;9.210;2022-11-20T15:28:54;15.00;61.70
40257;DHT22;25977;45.462;9.210;2022-11-20T15:31:22;15.00;61.70
40257;DHT22;25977;45.462;9.210;2022-11-20T15:33:48;14.90;61.60
40257;DHT22;25977;45.462;9.210;2022-11-20T15:36:14;14.90;61.60
40257;DHT22;25977;45.462;9.210;2022-11-20T15:38:40;14.90;61.80
40257;DHT22;25977;45.462;9.210;2022-11-20T15:41:06;14.90;62.00
40257;DHT22;25977;45.462;9.210;2022-11-20T15:43:32;14.90;62.00
40257;DHT22;25977;45.462;9.210;2022-11-20T15:46:16;14.80;61.80
40257;DHT22;25977;45.462;9.210;2022-11-20T15:48:43;14.80;61.90
40257;DHT22;25977;45.462;9.210;2022-11-20T15:53:35;14.70;62.10
40257;DHT22;25977;45.462;9.210;2022-11-20T15:56:01;14.70;62.20
40257;DHT22;25977;45.462;9.210;2022-11-20T15:58:27;14.70;62.60
40257;DHT22;25977;45.462;9.210;2022-11-20T16:00:53;14.70;62.60
40257;DHT22;25977;45.462;9.210;2022-11-20T16:03:19;14.60;62.70
40257;DHT22;25977;45.462;9.210;2022-11-20T16:05:45;14.60;62.90
40257;DHT22;25977;45.462;9.210;2022-11-20T16:08:11;14.60;63.00
40257;DHT22;25977;45.462;9.210;2022-11-20T16:10:37;14.60;63.20
40257;DHT22;25977;45.462;9.210;2022-11-20T16:13:03;14.60;63.10
40257;DHT22;25977;45.462;9.210;2022-11-20T16:15:51;14.50;63.10
40257;DHT22;25977;45.462;9.210;2022-11-20T16:18:20;14.50;63.40
40257;DHT22;25977;45.462;9.210;2022-11-20T16:20:51;14.50;63.60
40257;DHT22;25977;45.462;9.210;2022-11-20T16:23:18;14.50;63.80
40257;DHT22;25977;45.462;9.210;2022-11-20T16:25:44;14.40;63.90
40257;DHT22;25977;45.462;9.210;2022-11-20T16:28:10;14.40;64.00
40257;DHT22;25977;45.462;9.210;2022-11-20T16:30:37;14.40;64.20
40257;DHT22;25977;45.462;9.210;2022-11-20T16:33:03;14.40;64.40
40257;DHT22;25977;45.462;9.210;2022-11-20T16:35:32;14.40;64.60
40257;DHT22;25977;45.462;9.210;2022-11-20T16:37:58;14.40;64.60
40257;DHT22;25977;45.462;9.210;2022-11-20T16:40:24;14.30;64.60
40257;DHT22;25977;45.462;9.210;2022-11-20T16:42:50;14.30;64.60
40257;DHT22;25977;45.462;9.210;2022-11-20T16:45:17;14.30;64.70
40257;DHT22;25977;45.462;9.210;2022-11-20T16:47:43;14.20;64.70
40257;DHT22;25977;45.462;9.210;2022-11-20T16:50:09;14.20;65.00
40257;DHT22;25977;45.462;9.210;2022-11-20T16:52:35;14.20;65.20
40257;DHT22;25977;45.462;9.210;2022-11-20T16:55:00;14.20;65.40
40257;DHT22;25977;45.462;9.210;2022-11-20T16:57:30;14.20;65.70
40257;DHT22;25977;45.462;9.210;2022-11-20T16:59:58;14.10;66.00
40257;DHT22;25977;45.462;9.210;2022-11-20T17:02:25;14.10;66.00
40257;DHT22;25977;45.462;9.210;2022-11-20T17:04:51;14.10;66.10
40257;DHT22;25977;45.462;9.210;2022-11-20T17:07:17;14.10;66.20
40257;DHT22;25977;45.462;9.210;2022-11-20T17:09:43;14.00;66.40
40257;DHT22;25977;45.462;9.210;2022-11-20T17:12:09;14.10;66.60
40257;DHT22;25977;45.462;9.210;2022-11-20T17:14:35;14.00;66.60
40257;DHT22;25977;45.462;9.210;2022-11-20T17:17:01;14.00;66.70
40257;DHT22;25977;45.462;9.210;2022-11-20T17:19:27;14.00;66.80
40257;DHT22;25977;45.462;9.210;2022-11-20T17:21:53;14.00;66.80
40257;DHT22;25977;45.462;9.210;2022-11-20T17:24:19;14.00;66.90
40257;DHT22;25977;45.462;9.210;2022-11-20T17:26:47;13.90;67.10